sensor_id;sensor_type;location;lat;lon;timestamp;P1;durP1;ratioP1;P2;durP2;ratioP2
37855;SDS011;23694;43.274;26.924;2022-08-19T00:00:15;12.15;;;8.57;;
37855;SDS011;23694;43.274;26.924;2022-08-19T00:02:42;9.57;;;8.52;;
37855;SDS011;23694;43.274;26.924;2022-08-19T00:05:09;10.77;;;8.63;;
37855;SDS011;23694;43.274;26.924;2022-08-19T00:07:36;10.52;;;8.57;;
37855;SDS011;23694;43.274;26.924;2022-08-19T00:10:04;13.55;;;8.80;;
37855;SDS011;23694;43.274;26.924;2022-08-19T00:12:32;14.80;;;8.60;;
37855;SDS011;23694;43.274;26.924;2022-08-19T00:14:59;9.75;;;7.75;;
37855;SDS011;23694;43.274;26.924;2022-08-19T00:17:25;9.30;;;8.35;;
37855;SDS011;23694;43.274;26.924;2022-08-19T00:19:51;11.07;;;8.43;;
37855;SDS011;23694;43.274;26.924;2022-08-19T00:22:17;11.13;;;8.52;;
37855;SDS011;23694;43.274;26.924;2022-08-19T00:24:44;12.30;;;8.63;;
37855;SDS011;23694;43.274;26.924;2022-08-19T00:27:11;9.45;;;8.13;;
37855;SDS011;23694;43.274;26.924;2022-08-19T00:29:37;12.30;;;8.27;;
37855;SDS011;23694;43.274;26.924;2022-08-19T00:32:04;9.93;;;8.35;;
37855;SDS011;23694;43.274;26.924;2022-08-19T00:34:30;11.25;;;8.88;;
37855;SDS011;23694;43.274;26.924;2022-08-19T00:36:56;11.48;;;8.02;;
37855;SDS011;23694;43.274;26.924;2022-08-19T00:39:23;11.63;;;8.27;;
37855;SDS011;23694;43.274;26.924;2022-08-19T00:41:49;10.25;;;8.20;;
37855;SDS011;23694;43.274;26.924;2022-08-19T00:46:48;11.27;;;7.90;;
37855;SDS011;23694;43.274;26.924;2022-08-19T00:49:18;9.27;;;7.80;;
37855;SDS011;23694;43.274;26.924;2022-08-19T00:51:50;11.13;;;8.25;;
37855;SDS011;23694;43.274;26.924;2022-08-19T00:54:19;10.07;;;7.78;;
37855;SDS011;23694;43.274;26.924;2022-08-19T00:56:47;10.95;;;8.02;;
37855;SDS011;23694;43.274;26.924;2022-08-19T00:59:15;10.07;;;7.70;;
37855;SDS011;23694;43.274;26.924;2022-08-19T01:01:42;9.15;;;8.18;;
37855;SDS011;23694;43.274;26.924;2022-08-19T01:04:09;9.57;;;8.07;;
37855;SDS011;23694;43.274;26.924;2022-08-19T01:06:36;10.52;;;7.93;;
37855;SDS011;23694;43.274;26.924;2022-08-19T01:09:04;8.27;;;7.30;;
37855;SDS011;23694;43.274;26.924;2022-08-19T01:11:31;10.23;;;7.75;;
37855;SDS011;23694;43.274;26.924;2022-08-19T01:14:01;10.18;;;8.02;;
37855;SDS011;23694;43.274;26.924;2022-08-19T01:16:28;10.13;;;7.97;;
37855;SDS011;23694;43.274;26.924;2022-08-19T01:18:56;11.48;;;8.30;;
37855;SDS011;23694;43.274;26.924;2022-08-19T01:21:40;10.85;;;7.45;;
37855;SDS011;23694;43.274;26.924;2022-08-19T01:24:11;9.82;;;7.57;;
37855;SDS011;23694;43.274;26.924;2022-08-19T01:26:38;12.23;;;7.50;;
37855;SDS011;23694;43.274;26.924;2022-08-19T01:29:07;10.55;;;8.32;;
37855;SDS011;23694;43.274;26.924;2022-08-19T01:31:33;11.00;;;8.13;;
37855;SDS011;23694;43.274;26.924;2022-08-19T01:34:00;13.98;;;7.55;;
37855;SDS011;23694;43.274;26.924;2022-08-19T01:36:30;10.40;;;8.20;;
37855;SDS011;23694;43.274;26.924;2022-08-19T01:39:06;8.93;;;7.90;;
37855;SDS011;23694;43.274;26.924;2022-08-19T01:41:35;8.25;;;7.45;;
37855;SDS011;23694;43.274;26.924;2022-08-19T01:44:02;9.40;;;7.55;;
37855;SDS011;23694;43.274;26.924;2022-08-19T01:46:30;12.43;;;8.20;;
37855;SDS011;23694;43.274;26.924;2022-08-19T01:48:57;9.75;;;7.55;;
37855;SDS011;23694;43.274;26.924;2022-08-19T01:51:24;12.13;;;8.32;;
37855;SDS011;23694;43.274;26.924;2022-08-19T01:53:51;11.10;;;8.35;;
37855;SDS011;23694;43.274;26.924;2022-08-19T01:56:17;8.65;;;7.45;;
37855;SDS011;23694;43.274;26.924;2022-08-19T01:58:51;10.65;;;8.10;;
37855;SDS011;23694;43.274;26.924;2022-08-19T02:01:25;8.85;;;7.60;;
37855;SDS011;23694;43.274;26.924;2022-08-19T02:03:51;9.02;;;7.40;;
37855;SDS011;23694;43.274;26.924;2022-08-19T02:06:19;10.13;;;7.82;;
37855;SDS011;23694;43.274;26.924;2022-08-19T02:08:46;9.10;;;7.90;;
37855;SDS011;23694;43.274;26.924;2022-08-19T02:11:23;7.93;;;7.10;;
37855;SDS011;23694;43.274;26.924;2022-08-19T02:13:57;9.90;;;7.55;;
37855;SDS011;23694;43.274;26.924;2022-08-19T02:16:24;9.13;;;7.78;;
37855;SDS011;23694;43.274;26.924;2022-08-19T02:18:50;10.88;;;7.80;;
37855;SDS011;23694;43.274;26.924;2022-08-19T02:21:17;12.88;;;8.20;;
37855;SDS011;23694;43.274;26.924;2022-08-19T02:23:45;11.40;;;8.43;;
37855;SDS011;23694;43.274;26.924;2022-08-19T02:26:12;9.45;;;8.27;;
37855;SDS011;23694;43.274;26.924;2022-08-19T02:28:39;11.52;;;8.60;;
37855;SDS011;23694;43.274;26.924;2022-08-19T02:31:09;10.02;;;7.75;;
37855;SDS011;23694;43.274;26.924;2022-08-19T02:33:37;11.82;;;7.80;;
37855;SDS011;23694;43.274;26.924;2022-08-19T02:36:04;9.23;;;7.85;;
37855;SDS011;23694;43.274;26.924;2022-08-19T02:38:31;12.75;;;7.97;;
37855;SDS011;23694;43.274;26.924;2022-08-19T02:40:58;12.63;;;8.20;;
37855;SDS011;23694;43.274;26.924;2022-08-19T02:43:27;11.50;;;8.90;;
37855;SDS011;23694;43.274;26.924;2022-08-19T02:45:54;11.18;;;8.48;;
37855;SDS011;23694;43.274;26.924;2022-08-19T02:48:21;11.00;;;7.97;;
37855;SDS011;23694;43.274;26.924;2022-08-19T02:50:50;9.23;;;7.60;;
37855;SDS011;23694;43.274;26.924;2022-08-19T02:53:23;9.75;;;8.30;;
37855;SDS011;23694;43.274;26.924;2022-08-19T02:55:51;11.50;;;8.43;;
37855;SDS011;23694;43.274;26.924;2022-08-19T02:58:18;13.23;;;8.45;;
37855;SDS011;23694;43.274;26.924;2022-08-19T03:00:46;11.82;;;8.77;;
37855;SDS011;23694;43.274;26.924;2022-08-19T03:03:15;11.13;;;7.63;;
37855;SDS011;23694;43.274;26.924;2022-08-19T03:05:42;10.48;;;8.25;;
37855;SDS011;23694;43.274;26.924;2022-08-19T03:08:08;13.52;;;8.68;;
37855;SDS011;23694;43.274;26.924;2022-08-19T03:10:45;9.23;;;8.32;;
37855;SDS011;23694;43.274;26.924;2022-08-19T03:13:13;13.77;;;8.30;;
37855;SDS011;23694;43.274;26.924;2022-08-19T03:15:42;14.10;;;10.57;;
37855;SDS011;23694;43.274;26.924;2022-08-19T03:18:09;22.20;;;13.95;;
37855;SDS011;23694;43.274;26.924;2022-08-19T03:20:40;20.52;;;14.63;;
37855;SDS011;23694;43.274;26.924;2022-08-19T03:23:24;17.65;;;14.15;;
37855;SDS011;23694;43.274;26.924;2022-08-19T03:25:51;18.15;;;14.18;;
37855;SDS011;23694;43.274;26.924;2022-08-19T03:28:19;19.92;;;14.27;;
37855;SDS011;23694;43.274;26.924;2022-08-19T03:31:03;13.85;;;11.32;;
37855;SDS011;23694;43.274;26.924;2022-08-19T03:33:32;12.35;;;9.90;;
37855;SDS011;23694;43.274;26.924;2022-08-19T03:36:09;12.02;;;9.43;;
37855;SDS011;23694;43.274;26.924;2022-08-19T03:38:37;10.85;;;8.75;;
37855;SDS011;23694;43.274;26.924;2022-08-19T03:41:08;12.00;;;9.00;;
37855;SDS011;23694;43.274;26.924;2022-08-19T03:43:36;10.20;;;9.07;;
37855;SDS011;23694;43.274;26.924;2022-08-19T03:46:13;11.50;;;8.43;;
37855;SDS011;23694;43.274;26.924;2022-08-19T03:48:41;10.43;;;8.30;;
37855;SDS011;23694;43.274;26.924;2022-08-19T03:51:19;11.18;;;8.50;;
37855;SDS011;23694;43.274;26.924;2022-08-19T03:53:47;9.55;;;7.20;;
37855;SDS011;23694;43.274;26.924;2022-08-19T03:56:14;9.85;;;7.78;;
37855;SDS011;23694;43.274;26.924;2022-08-19T03:58:40;10.57;;;7.75;;
37855;SDS011;23694;43.274;26.924;2022-08-19T04:01:08;9.60;;;7.88;;
37855;SDS011;23694;43.274;26.924;2022-08-19T04:03:36;9.20;;;7.97;;
37855;SDS011;23694;43.274;26.924;2022-08-19T04:08:50;13.18;;;7.90;;
37855;SDS011;23694;43.274;26.924;2022-08-19T04:11:21;9.27;;;7.57;;
37855;SDS011;23694;43.274;26.924;2022-08-19T04:13:51;10.27;;;7.30;;
37855;SDS011;23694;43.274;26.924;2022-08-19T04:16:19;11.18;;;7.20;;
37855;SDS011;23694;43.274;26.924;2022-08-19T04:18:47;9.63;;;7.55;;
37855;SDS011;23694;43.274;26.924;2022-08-19T04:21:18;9.18;;;6.60;;
37855;SDS011;23694;43.274;26.924;2022-08-19T04:23:50;8.85;;;7.30;;
37855;SDS011;23694;43.274;26.924;2022-08-19T04:26:19;15.88;;;7.15;;
37855;SDS011;23694;43.274;26.924;2022-08-19T04:28:48;8.68;;;6.80;;
37855;SDS011;23694;43.274;26.924;2022-08-19T04:31:15;11.55;;;7.40;;
37855;SDS011;23694;43.274;26.924;2022-08-19T04:33:46;10.60;;;6.80;;
37855;SDS011;23694;43.274;26.924;2022-08-19T04:36:16;9.80;;;7.00;;
37855;SDS011;23694;43.274;26.924;2022-08-19T04:38:49;10.15;;;6.78;;
37855;SDS011;23694;43.274;26.924;2022-08-19T04:41:16;8.68;;;6.90;;
37855;SDS011;23694;43.274;26.924;2022-08-19T04:44:00;14.63;;;7.22;;
37855;SDS011;23694;43.274;26.924;2022-08-19T04:46:28;8.73;;;7.22;;
37855;SDS011;23694;43.274;26.924;2022-08-19T04:48:56;15.88;;;10.40;;
37855;SDS011;23694;43.274;26.924;2022-08-19T04:51:23;16.83;;;10.00;;
37855;SDS011;23694;43.274;26.924;2022-08-19T04:53:49;19.40;;;14.43;;
37855;SDS011;23694;43.274;26.924;2022-08-19T04:56:16;18.92;;;12.90;;
37855;SDS011;23694;43.274;26.924;2022-08-19T04:58:44;9.35;;;7.15;;
37855;SDS011;23694;43.274;26.924;2022-08-19T05:01:12;15.93;;;8.77;;
37855;SDS011;23694;43.274;26.924;2022-08-19T05:03:40;15.38;;;12.93;;
37855;SDS011;23694;43.274;26.924;2022-08-19T05:06:06;11.57;;;8.05;;
37855;SDS011;23694;43.274;26.924;2022-08-19T05:08:37;15.07;;;12.18;;
37855;SDS011;23694;43.274;26.924;2022-08-19T05:11:12;9.43;;;6.85;;
37855;SDS011;23694;43.274;26.924;2022-08-19T05:13:39;10.27;;;7.35;;
37855;SDS011;23694;43.274;26.924;2022-08-19T05:16:05;14.63;;;9.15;;
37855;SDS011;23694;43.274;26.924;2022-08-19T05:18:31;14.10;;;6.45;;
37855;SDS011;23694;43.274;26.924;2022-08-19T05:21:17;10.82;;;7.00;;
37855;SDS011;23694;43.274;26.924;2022-08-19T05:24:04;8.55;;;6.50;;
37855;SDS011;23694;43.274;26.924;2022-08-19T05:26:38;10.50;;;7.20;;
37855;SDS011;23694;43.274;26.924;2022-08-19T05:29:05;11.73;;;6.22;;
37855;SDS011;23694;43.274;26.924;2022-08-19T05:31:33;8.80;;;6.00;;
37855;SDS011;23694;43.274;26.924;2022-08-19T05:34:01;11.35;;;6.50;;
37855;SDS011;23694;43.274;26.924;2022-08-19T05:36:28;8.10;;;6.05;;
37855;SDS011;23694;43.274;26.924;2022-08-19T05:39:00;8.73;;;7.03;;
37855;SDS011;23694;43.274;26.924;2022-08-19T05:41:27;8.77;;;6.95;;
37855;SDS011;23694;43.274;26.924;2022-08-19T05:43:56;8.45;;;6.43;;
37855;SDS011;23694;43.274;26.924;2022-08-19T05:46:23;10.73;;;7.43;;
37855;SDS011;23694;43.274;26.924;2022-08-19T05:48:49;11.93;;;7.03;;
37855;SDS011;23694;43.274;26.924;2022-08-19T05:51:15;17.10;;;7.13;;
37855;SDS011;23694;43.274;26.924;2022-08-19T05:53:42;11.75;;;6.78;;
37855;SDS011;23694;43.274;26.924;2022-08-19T05:56:12;11.80;;;6.93;;
37855;SDS011;23694;43.274;26.924;2022-08-19T05:58:43;11.57;;;7.00;;
37855;SDS011;23694;43.274;26.924;2022-08-19T06:01:12;10.25;;;6.85;;
37855;SDS011;23694;43.274;26.924;2022-08-19T06:03:40;11.05;;;7.05;;
37855;SDS011;23694;43.274;26.924;2022-08-19T06:06:07;8.82;;;6.95;;
37855;SDS011;23694;43.274;26.924;2022-08-19T06:08:35;9.27;;;6.75;;
37855;SDS011;23694;43.274;26.924;2022-08-19T06:11:19;8.82;;;6.60;;
37855;SDS011;23694;43.274;26.924;2022-08-19T06:13:50;10.77;;;7.55;;
37855;SDS011;23694;43.274;26.924;2022-08-19T06:16:18;11.77;;;7.00;;
37855;SDS011;23694;43.274;26.924;2022-08-19T06:18:48;11.90;;;6.93;;
37855;SDS011;23694;43.274;26.924;2022-08-19T06:21:26;11.93;;;6.95;;
37855;SDS011;23694;43.274;26.924;2022-08-19T06:23:54;12.93;;;6.97;;
37855;SDS011;23694;43.274;26.924;2022-08-19T06:26:22;11.75;;;7.10;;
37855;SDS011;23694;43.274;26.924;2022-08-19T06:28:49;12.75;;;7.07;;
37855;SDS011;23694;43.274;26.924;2022-08-19T06:31:17;14.77;;;6.93;;
37855;SDS011;23694;43.274;26.924;2022-08-19T06:33:46;9.18;;;6.60;;
37855;SDS011;23694;43.274;26.924;2022-08-19T06:36:17;8.98;;;6.38;;
37855;SDS011;23694;43.274;26.924;2022-08-19T06:38:46;13.60;;;7.05;;
37855;SDS011;23694;43.274;26.924;2022-08-19T06:41:12;10.65;;;6.60;;
37855;SDS011;23694;43.274;26.924;2022-08-19T06:43:39;9.07;;;6.63;;
37855;SDS011;23694;43.274;26.924;2022-08-19T06:46:09;9.10;;;6.97;;
37855;SDS011;23694;43.274;26.924;2022-08-19T06:48:37;11.85;;;6.72;;
37855;SDS011;23694;43.274;26.924;2022-08-19T06:51:04;9.68;;;6.68;;
37855;SDS011;23694;43.274;26.924;2022-08-19T06:53:31;11.80;;;6.63;;
37855;SDS011;23694;43.274;26.924;2022-08-19T06:55:58;12.45;;;7.53;;
37855;SDS011;23694;43.274;26.924;2022-08-19T06:58:28;10.20;;;6.50;;
37855;SDS011;23694;43.274;26.924;2022-08-19T07:01:06;9.27;;;6.53;;
37855;SDS011;23694;43.274;26.924;2022-08-19T07:03:34;12.15;;;6.20;;
37855;SDS011;23694;43.274;26.924;2022-08-19T07:06:09;13.60;;;6.45;;
37855;SDS011;23694;43.274;26.924;2022-08-19T07:08:38;17.05;;;11.40;;
37855;SDS011;23694;43.274;26.924;2022-08-19T07:11:08;14.73;;;10.57;;
37855;SDS011;23694;43.274;26.924;2022-08-19T07:13:36;10.10;;;6.95;;
37855;SDS011;23694;43.274;26.924;2022-08-19T07:16:06;9.73;;;6.18;;
37855;SDS011;23694;43.274;26.924;2022-08-19T07:18:34;7.78;;;6.07;;
37855;SDS011;23694;43.274;26.924;2022-08-19T07:21:05;9.77;;;6.32;;
37855;SDS011;23694;43.274;26.924;2022-08-19T07:23:32;9.30;;;6.57;;
37855;SDS011;23694;43.274;26.924;2022-08-19T07:26:04;13.02;;;7.32;;
37855;SDS011;23694;43.274;26.924;2022-08-19T07:28:34;12.10;;;6.85;;
37855;SDS011;23694;43.274;26.924;2022-08-19T07:31:07;15.90;;;6.60;;
37855;SDS011;23694;43.274;26.924;2022-08-19T07:33:35;24.55;;;7.43;;
37855;SDS011;23694;43.274;26.924;2022-08-19T07:36:06;15.43;;;6.55;;
37855;SDS011;23694;43.274;26.924;2022-08-19T07:38:35;10.25;;;6.22;;
37855;SDS011;23694;43.274;26.924;2022-08-19T07:41:02;13.88;;;6.60;;
37855;SDS011;23694;43.274;26.924;2022-08-19T07:43:28;12.32;;;7.43;;
37855;SDS011;23694;43.274;26.924;2022-08-19T07:45:54;11.70;;;6.68;;
37855;SDS011;23694;43.274;26.924;2022-08-19T07:48:25;13.80;;;7.65;;
37855;SDS011;23694;43.274;26.924;2022-08-19T07:50:53;13.95;;;7.10;;
37855;SDS011;23694;43.274;26.924;2022-08-19T07:53:21;12.35;;;6.57;;
37855;SDS011;23694;43.274;26.924;2022-08-19T07:55:47;14.65;;;6.35;;
37855;SDS011;23694;43.274;26.924;2022-08-19T07:58:15;10.32;;;6.13;;
37855;SDS011;23694;43.274;26.924;2022-08-19T08:00:44;10.07;;;6.45;;
37855;SDS011;23694;43.274;26.924;2022-08-19T08:03:13;10.73;;;6.40;;
37855;SDS011;23694;43.274;26.924;2022-08-19T08:05:40;15.27;;;6.60;;
37855;SDS011;23694;43.274;26.924;2022-08-19T08:08:25;12.57;;;6.15;;
37855;SDS011;23694;43.274;26.924;2022-08-19T08:11:01;13.73;;;8.55;;
37855;SDS011;23694;43.274;26.924;2022-08-19T08:13:27;10.45;;;6.75;;
37855;SDS011;23694;43.274;26.924;2022-08-19T08:15:53;8.55;;;6.40;;
37855;SDS011;23694;43.274;26.924;2022-08-19T08:18:19;11.30;;;6.97;;
37855;SDS011;23694;43.274;26.924;2022-08-19T08:20:46;10.18;;;6.25;;
37855;SDS011;23694;43.274;26.924;2022-08-19T08:23:12;11.45;;;6.10;;
37855;SDS011;23694;43.274;26.924;2022-08-19T08:25:48;11.63;;;5.85;;
37855;SDS011;23694;43.274;26.924;2022-08-19T08:28:15;8.77;;;5.40;;
37855;SDS011;23694;43.274;26.924;2022-08-19T08:30:41;9.68;;;5.72;;
37855;SDS011;23694;43.274;26.924;2022-08-19T08:33:09;8.95;;;5.63;;
37855;SDS011;23694;43.274;26.924;2022-08-19T08:35:35;10.40;;;5.60;;
37855;SDS011;23694;43.274;26.924;2022-08-19T08:38:02;18.85;;;6.10;;
37855;SDS011;23694;43.274;26.924;2022-08-19T08:45:32;8.23;;;5.43;;
37855;SDS011;23694;43.274;26.924;2022-08-19T08:48:07;7.63;;;5.45;;
37855;SDS011;23694;43.274;26.924;2022-08-19T08:50:42;9.38;;;5.70;;
37855;SDS011;23694;43.274;26.924;2022-08-19T08:53:11;10.20;;;5.90;;
37855;SDS011;23694;43.274;26.924;2022-08-19T08:55:41;10.05;;;6.30;;
37855;SDS011;23694;43.274;26.924;2022-08-19T08:58:23;12.43;;;6.03;;
37855;SDS011;23694;43.274;26.924;2022-08-19T09:00:56;14.40;;;5.50;;
37855;SDS011;23694;43.274;26.924;2022-08-19T09:03:26;8.50;;;5.63;;
37855;SDS011;23694;43.274;26.924;2022-08-19T09:08:38;9.85;;;6.05;;
37855;SDS011;23694;43.274;26.924;2022-08-19T09:11:25;8.93;;;5.75;;
37855;SDS011;23694;43.274;26.924;2022-08-19T09:16:50;8.02;;;5.60;;
37855;SDS011;23694;43.274;26.924;2022-08-19T09:19:17;10.25;;;5.53;;
37855;SDS011;23694;43.274;26.924;2022-08-19T09:21:43;13.23;;;6.20;;
37855;SDS011;23694;43.274;26.924;2022-08-19T09:24:09;10.45;;;6.00;;
37855;SDS011;23694;43.274;26.924;2022-08-19T09:26:35;10.30;;;6.50;;
37855;SDS011;23694;43.274;26.924;2022-08-19T09:29:01;10.90;;;5.72;;
37855;SDS011;23694;43.274;26.924;2022-08-19T09:31:30;9.93;;;6.30;;
37855;SDS011;23694;43.274;26.924;2022-08-19T09:33:58;12.00;;;6.25;;
37855;SDS011;23694;43.274;26.924;2022-08-19T09:36:26;13.23;;;5.80;;
37855;SDS011;23694;43.274;26.924;2022-08-19T09:38:55;11.13;;;6.63;;
37855;SDS011;23694;43.274;26.924;2022-08-19T09:41:22;9.60;;;6.00;;
37855;SDS011;23694;43.274;26.924;2022-08-19T09:43:51;10.50;;;6.03;;
37855;SDS011;23694;43.274;26.924;2022-08-19T09:46:19;10.48;;;6.22;;
37855;SDS011;23694;43.274;26.924;2022-08-19T09:48:49;10.25;;;5.50;;
37855;SDS011;23694;43.274;26.924;2022-08-19T09:51:18;13.88;;;5.80;;
37855;SDS011;23694;43.274;26.924;2022-08-19T09:53:49;9.88;;;5.15;;
37855;SDS011;23694;43.274;26.924;2022-08-19T09:56:17;13.45;;;5.53;;
37855;SDS011;23694;43.274;26.924;2022-08-19T09:58:45;12.43;;;5.00;;
37855;SDS011;23694;43.274;26.924;2022-08-19T10:01:19;12.82;;;5.72;;
37855;SDS011;23694;43.274;26.924;2022-08-19T10:03:47;11.18;;;5.10;;
37855;SDS011;23694;43.274;26.924;2022-08-19T10:06:16;11.65;;;5.32;;
37855;SDS011;23694;43.274;26.924;2022-08-19T10:08:42;8.80;;;5.53;;
37855;SDS011;23694;43.274;26.924;2022-08-19T10:11:09;10.38;;;5.85;;
37855;SDS011;23694;43.274;26.924;2022-08-19T10:13:35;12.35;;;5.35;;
37855;SDS011;23694;43.274;26.924;2022-08-19T10:16:05;11.43;;;7.10;;
37855;SDS011;23694;43.274;26.924;2022-08-19T10:18:34;10.77;;;7.45;;
37855;SDS011;23694;43.274;26.924;2022-08-19T10:21:03;7.85;;;5.70;;
37855;SDS011;23694;43.274;26.924;2022-08-19T10:23:30;11.23;;;5.45;;
37855;SDS011;23694;43.274;26.924;2022-08-19T10:25:59;12.75;;;5.32;;
37855;SDS011;23694;43.274;26.924;2022-08-19T10:28:26;11.90;;;5.40;;
37855;SDS011;23694;43.274;26.924;2022-08-19T10:30:52;10.18;;;5.25;;
37855;SDS011;23694;43.274;26.924;2022-08-19T10:33:18;12.50;;;5.15;;
37855;SDS011;23694;43.274;26.924;2022-08-19T10:35:44;10.32;;;5.35;;
37855;SDS011;23694;43.274;26.924;2022-08-19T10:38:12;8.60;;;5.38;;
37855;SDS011;23694;43.274;26.924;2022-08-19T10:40:38;11.40;;;5.30;;
37855;SDS011;23694;43.274;26.924;2022-08-19T10:43:04;8.88;;;5.20;;
37855;SDS011;23694;43.274;26.924;2022-08-19T10:45:30;14.25;;;5.20;;
37855;SDS011;23694;43.274;26.924;2022-08-19T10:47:56;11.57;;;5.03;;
37855;SDS011;23694;43.274;26.924;2022-08-19T10:50:22;11.05;;;5.25;;
37855;SDS011;23694;43.274;26.924;2022-08-19T10:53:08;8.75;;;4.75;;
37855;SDS011;23694;43.274;26.924;2022-08-19T10:55:34;19.45;;;5.90;;
37855;SDS011;23694;43.274;26.924;2022-08-19T10:58:20;6.75;;;5.65;;
37855;SDS011;23694;43.274;26.924;2022-08-19T11:00:52;9.18;;;4.90;;
37855;SDS011;23694;43.274;26.924;2022-08-19T11:03:19;10.18;;;4.80;;
37855;SDS011;23694;43.274;26.924;2022-08-19T11:05:46;11.32;;;5.22;;
37855;SDS011;23694;43.274;26.924;2022-08-19T11:08:14;7.53;;;4.20;;
37855;SDS011;23694;43.274;26.924;2022-08-19T11:10:43;7.30;;;4.50;;
37855;SDS011;23694;43.274;26.924;2022-08-19T11:13:09;7.30;;;4.50;;
37855;SDS011;23694;43.274;26.924;2022-08-19T11:15:35;11.63;;;4.72;;
37855;SDS011;23694;43.274;26.924;2022-08-19T11:18:02;10.55;;;6.20;;
37855;SDS011;23694;43.274;26.924;2022-08-19T11:20:29;11.48;;;5.47;;
37855;SDS011;23694;43.274;26.924;2022-08-19T11:22:56;11.45;;;5.55;;
37855;SDS011;23694;43.274;26.924;2022-08-19T11:25:22;8.95;;;5.05;;
37855;SDS011;23694;43.274;26.924;2022-08-19T11:27:48;13.80;;;5.30;;
37855;SDS011;23694;43.274;26.924;2022-08-19T11:30:16;13.43;;;4.90;;
37855;SDS011;23694;43.274;26.924;2022-08-19T11:32:42;27.48;;;6.00;;
37855;SDS011;23694;43.274;26.924;2022-08-19T11:35:08;14.50;;;7.15;;
37855;SDS011;23694;43.274;26.924;2022-08-19T11:37:36;10.45;;;6.68;;
37855;SDS011;23694;43.274;26.924;2022-08-19T11:40:04;12.05;;;6.45;;
37855;SDS011;23694;43.274;26.924;2022-08-19T11:42:31;8.70;;;5.63;;
37855;SDS011;23694;43.274;26.924;2022-08-19T11:45:16;9.02;;;4.85;;
37855;SDS011;23694;43.274;26.924;2022-08-19T11:47:42;10.95;;;4.70;;
37855;SDS011;23694;43.274;26.924;2022-08-19T11:50:09;8.40;;;4.55;;
37855;SDS011;23694;43.274;26.924;2022-08-19T11:52:35;18.00;;;5.53;;
37855;SDS011;23694;43.274;26.924;2022-08-19T11:55:02;12.63;;;4.93;;
37855;SDS011;23694;43.274;26.924;2022-08-19T11:57:28;6.82;;;5.53;;
37855;SDS011;23694;43.274;26.924;2022-08-19T11:59:54;7.53;;;4.45;;
37855;SDS011;23694;43.274;26.924;2022-08-19T12:02:20;11.10;;;5.10;;
37855;SDS011;23694;43.274;26.924;2022-08-19T12:04:47;9.13;;;5.30;;
37855;SDS011;23694;43.274;26.924;2022-08-19T12:07:13;9.57;;;5.25;;
37855;SDS011;23694;43.274;26.924;2022-08-19T12:09:39;14.55;;;5.78;;
37855;SDS011;23694;43.274;26.924;2022-08-19T12:12:05;9.55;;;4.97;;
37855;SDS011;23694;43.274;26.924;2022-08-19T12:14:32;8.77;;;4.47;;
37855;SDS011;23694;43.274;26.924;2022-08-19T12:16:58;15.70;;;5.40;;
37855;SDS011;23694;43.274;26.924;2022-08-19T12:19:24;11.40;;;4.68;;
37855;SDS011;23694;43.274;26.924;2022-08-19T12:21:50;9.63;;;4.45;;
37855;SDS011;23694;43.274;26.924;2022-08-19T12:24:18;7.60;;;4.63;;
37855;SDS011;23694;43.274;26.924;2022-08-19T12:26:48;7.30;;;4.32;;
37855;SDS011;23694;43.274;26.924;2022-08-19T12:29:15;8.15;;;4.60;;
37855;SDS011;23694;43.274;26.924;2022-08-19T12:31:41;10.35;;;4.88;;
37855;SDS011;23694;43.274;26.924;2022-08-19T12:34:07;9.15;;;4.78;;
37855;SDS011;23694;43.274;26.924;2022-08-19T12:36:33;15.13;;;4.55;;
37855;SDS011;23694;43.274;26.924;2022-08-19T12:38:59;9.02;;;4.43;;
37855;SDS011;23694;43.274;26.924;2022-08-19T12:41:26;11.38;;;4.47;;
37855;SDS011;23694;43.274;26.924;2022-08-19T12:43:52;14.43;;;4.70;;
37855;SDS011;23694;43.274;26.924;2022-08-19T12:46:18;9.45;;;4.70;;
37855;SDS011;23694;43.274;26.924;2022-08-19T12:48:45;8.75;;;4.20;;
37855;SDS011;23694;43.274;26.924;2022-08-19T12:51:13;13.73;;;4.57;;
37855;SDS011;23694;43.274;26.924;2022-08-19T12:53:42;12.27;;;4.45;;
37855;SDS011;23694;43.274;26.924;2022-08-19T12:56:09;10.90;;;4.80;;
37855;SDS011;23694;43.274;26.924;2022-08-19T12:58:36;10.30;;;3.90;;
37855;SDS011;23694;43.274;26.924;2022-08-19T13:01:06;11.05;;;4.43;;
37855;SDS011;23694;43.274;26.924;2022-08-19T13:03:36;7.75;;;3.95;;
37855;SDS011;23694;43.274;26.924;2022-08-19T13:06:03;9.95;;;4.28;;
37855;SDS011;23694;43.274;26.924;2022-08-19T13:08:29;10.07;;;4.10;;
37855;SDS011;23694;43.274;26.924;2022-08-19T13:10:55;18.48;;;5.03;;
37855;SDS011;23694;43.274;26.924;2022-08-19T13:13:21;8.73;;;4.15;;
37855;SDS011;23694;43.274;26.924;2022-08-19T13:15:47;10.63;;;4.57;;
37855;SDS011;23694;43.274;26.924;2022-08-19T13:18:13;13.18;;;4.10;;
37855;SDS011;23694;43.274;26.924;2022-08-19T13:20:39;9.25;;;4.20;;
37855;SDS011;23694;43.274;26.924;2022-08-19T13:23:06;10.60;;;4.97;;
37855;SDS011;23694;43.274;26.924;2022-08-19T13:25:33;9.88;;;4.40;;
37855;SDS011;23694;43.274;26.924;2022-08-19T13:28:01;9.80;;;4.25;;
37855;SDS011;23694;43.274;26.924;2022-08-19T13:30:28;9.07;;;4.10;;
37855;SDS011;23694;43.274;26.924;2022-08-19T13:33:12;8.75;;;4.75;;
37855;SDS011;23694;43.274;26.924;2022-08-19T13:38:20;11.10;;;4.22;;
37855;SDS011;23694;43.274;26.924;2022-08-19T13:40:47;8.98;;;4.10;;
37855;SDS011;23694;43.274;26.924;2022-08-19T13:43:15;12.10;;;4.50;;
37855;SDS011;23694;43.274;26.924;2022-08-19T13:45:42;10.35;;;4.38;;
37855;SDS011;23694;43.274;26.924;2022-08-19T13:48:09;12.60;;;4.82;;
37855;SDS011;23694;43.274;26.924;2022-08-19T13:50:39;10.70;;;4.28;;
37855;SDS011;23694;43.274;26.924;2022-08-19T13:53:08;13.45;;;4.00;;
37855;SDS011;23694;43.274;26.924;2022-08-19T13:55:37;7.32;;;4.32;;
37855;SDS011;23694;43.274;26.924;2022-08-19T13:58:04;24.15;;;13.57;;
37855;SDS011;23694;43.274;26.924;2022-08-19T14:00:34;19.10;;;14.05;;
37855;SDS011;23694;43.274;26.924;2022-08-19T14:03:02;8.27;;;4.75;;
37855;SDS011;23694;43.274;26.924;2022-08-19T14:05:30;9.52;;;3.95;;
37855;SDS011;23694;43.274;26.924;2022-08-19T14:07:57;8.85;;;4.20;;
37855;SDS011;23694;43.274;26.924;2022-08-19T14:10:25;12.70;;;3.92;;
37855;SDS011;23694;43.274;26.924;2022-08-19T14:12:52;12.23;;;4.65;;
37855;SDS011;23694;43.274;26.924;2022-08-19T14:15:21;13.80;;;3.95;;
37855;SDS011;23694;43.274;26.924;2022-08-19T14:17:48;11.55;;;4.07;;
37855;SDS011;23694;43.274;26.924;2022-08-19T14:20:15;9.38;;;4.57;;
37855;SDS011;23694;43.274;26.924;2022-08-19T14:22:42;13.23;;;4.35;;
37855;SDS011;23694;43.274;26.924;2022-08-19T14:25:10;5.65;;;4.13;;
37855;SDS011;23694;43.274;26.924;2022-08-19T14:27:39;14.93;;;4.50;;
37855;SDS011;23694;43.274;26.924;2022-08-19T14:30:07;11.13;;;4.78;;
37855;SDS011;23694;43.274;26.924;2022-08-19T14:32:36;20.40;;;5.18;;
37855;SDS011;23694;43.274;26.924;2022-08-19T14:35:02;12.45;;;4.95;;
37855;SDS011;23694;43.274;26.924;2022-08-19T14:37:29;14.80;;;5.00;;
37855;SDS011;23694;43.274;26.924;2022-08-19T14:39:55;11.10;;;4.43;;
37855;SDS011;23694;43.274;26.924;2022-08-19T14:42:21;9.73;;;4.30;;
37855;SDS011;23694;43.274;26.924;2022-08-19T14:44:47;7.60;;;4.47;;
37855;SDS011;23694;43.274;26.924;2022-08-19T14:47:13;9.40;;;4.55;;
37855;SDS011;23694;43.274;26.924;2022-08-19T14:49:39;12.00;;;4.40;;
37855;SDS011;23694;43.274;26.924;2022-08-19T14:52:06;8.45;;;3.97;;